Weather at Vervill 2 Apartments Heliports

Public forecast

Using degrees Celsius for public forecast. Weather courtesy of forecast.io.

Closest aviation weather report (METAR) to Vervill 2 Apartments Heliports

Closest report is Gimhae International Airport, 6.3 nm (11.6 km) WNW. Retrieved 2020/10/23 11:00 UTC (3 minutes ago):

RKPK 231100Z 35005KT CAVOK 12/02 Q1013

Closest aviation forecast (TAF) to Vervill 2 Apartments Heliports

Closest forecast is Gimhae International Airport, 6.3 nm (11.6 km) WNW. Retrieved 2020/10/23 06:00 UTC (5 hours ago):

TAF RKPK 230500Z 2306/2412 32012KT 9999 SCT030 TN09/2321Z TX17/2406Z BECMG 2308/2309 33008KT BECMG 2400/2401 32012KT